Time;durP1;ratioP1;P1;durP2;ratioP2;P2;SDS_P1;SDS_P2;PMS_P1;PMS_P2;Temp;Humidity;BMP_temperature;BMP_pressure;BME280_temperature;BME280_humidity;BME280_pressure;Samples;Min_cycle;Max_cycle;Signal;HPM_P1;HPM_P2
2023/11/04 00:00:51;;;;;;;1.40;1.30;;;;;;;22.21;60.51;95405.69;5019380;28;20285;-26
2023/11/04 00:03:37;;;;;;;1.27;1.17;;;;;;;22.22;60.40;95403.09;5012374;28;20194;-26
2023/11/04 00:06:05;;;;;;;1.23;1.20;;;;;;;22.21;60.50;95398.88;5021169;28;20205;-26
2023/11/04 00:08:31;;;;;;;1.30;1.20;;;;;;;22.21;59.87;95398.88;5012637;28;20720;-26
2023/11/04 00:10:58;;;;;;;1.33;1.23;;;;;;;22.21;60.40;95401.41;5022595;28;20206;-27
2023/11/04 00:13:25;;;;;;;1.40;1.30;;;;;;;22.21;60.37;95401.41;5015428;28;20207;-27
2023/11/04 00:15:51;;;;;;;1.30;1.20;;;;;;;22.22;60.46;95400.56;5017257;28;20234;-26
2023/11/04 00:18:18;;;;;;;1.47;1.37;;;;;;;22.22;60.52;95400.56;5014244;28;20257;-26
2023/11/04 00:20:45;;;;;;;1.50;1.40;;;;;;;22.22;60.35;95400.56;5018853;28;20245;-26
2023/11/04 00:23:17;;;;;;;1.47;1.37;;;;;;;22.23;60.55;95403.97;5023777;28;20205;-26
2023/11/04 00:25:44;;;;;;;1.40;1.30;;;;;;;22.23;60.39;95404.78;5015053;28;20207;-26
2023/11/04 00:28:11;;;;;;;1.37;1.27;;;;;;;22.23;60.40;95415.03;5016534;28;20704;-31
2023/11/04 00:30:38;;;;;;;1.20;1.20;;;;;;;22.23;60.41;95409.09;5013646;28;20244;-28
2023/11/04 00:33:04;;;;;;;1.43;1.33;;;;;;;22.23;60.46;95412.47;5015173;28;20294;-26
2023/11/04 00:35:31;;;;;;;1.40;1.30;;;;;;;22.24;60.36;95423.56;5013986;28;20198;-28
2023/11/04 00:37:58;;;;;;;1.50;1.40;;;;;;;22.23;60.54;95420.16;5020657;28;20289;-26
2023/11/04 00:40:24;;;;;;;1.40;1.30;;;;;;;22.23;60.44;95427.00;5011725;28;20630;-26
2023/11/04 00:42:53;;;;;;;1.30;1.20;;;;;;;22.23;60.48;95424.44;5013552;28;20198;-26
2023/11/04 00:45:19;;;;;;;1.47;1.37;;;;;;;22.21;60.45;95427.00;5016297;28;20247;-28
2023/11/04 00:47:46;;;;;;;1.27;1.20;;;;;;;22.22;60.28;95438.06;5018826;28;20664;-28
2023/11/04 00:50:14;;;;;;;1.33;1.23;;;;;;;22.22;60.39;95435.50;5013517;28;20218;-26
2023/11/04 00:52:47;;;;;;;1.30;1.20;;;;;;;22.21;60.35;95438.94;5011803;28;20293;-26
2023/11/04 00:55:14;;;;;;;1.40;1.23;;;;;;;22.20;60.42;95437.25;5022813;28;20206;-39
2023/11/04 00:57:40;;;;;;;1.33;1.23;;;;;;;22.20;60.26;95440.63;5013192;28;20558;-27
2023/11/04 01:00:07;;;;;;;1.20;1.20;;;;;;;22.21;60.39;95437.25;5013231;28;20663;-26
2023/11/04 01:02:34;;;;;;;1.60;1.50;;;;;;;22.21;60.49;95439.78;5017138;28;21087;-29
2023/11/04 01:05:00;;;;;;;1.53;1.43;;;;;;;22.21;60.97;95441.50;5019282;28;20582;-26
2023/11/04 01:07:28;;;;;;;1.40;1.23;;;;;;;22.22;60.39;95445.75;5012884;28;20225;-26
2023/11/04 01:09:54;;;;;;;1.30;1.20;;;;;;;22.21;60.53;95439.78;5018541;28;20696;-27
2023/11/04 01:12:21;;;;;;;1.47;1.37;;;;;;;22.21;60.32;95444.91;5012260;28;20194;-27
2023/11/04 01:14:48;;;;;;;1.40;1.30;;;;;;;22.21;60.57;95447.47;5013532;28;20194;-26
2023/11/04 01:17:14;;;;;;;1.43;1.30;;;;;;;22.22;60.63;95443.19;5020475;28;20260;-26
2023/11/04 01:19:41;;;;;;;1.30;1.20;;;;;;;22.20;60.54;95448.31;5021285;28;20261;-27
2023/11/04 01:22:08;;;;;;;1.60;1.50;;;;;;;22.20;60.49;95450.88;5019002;28;20202;-26
2023/11/04 01:24:34;;;;;;;1.40;1.30;;;;;;;22.21;60.47;95449.16;5012327;28;20244;-26
2023/11/04 01:27:01;;;;;;;1.37;1.27;;;;;;;22.20;60.52;95455.16;5017765;28;20604;-27
2023/11/04 01:29:28;;;;;;;1.30;1.20;;;;;;;22.20;60.44;95447.47;5020083;28;20250;-28
2023/11/04 01:31:54;;;;;;;1.47;1.37;;;;;;;22.20;60.43;95452.59;5015841;28;20669;-26
2023/11/04 01:34:21;;;;;;;1.60;1.50;;;;;;;22.20;60.31;95450.03;5015938;28;20285;-26
2023/11/04 01:36:48;;;;;;;1.30;1.20;;;;;;;22.19;60.68;95451.75;5012838;28;20592;-37
2023/11/04 01:39:14;;;;;;;1.40;1.30;;;;;;;22.20;60.35;95450.03;5012523;28;20589;-26
2023/11/04 01:41:41;;;;;;;1.40;1.30;;;;;;;22.02;60.47;95424.56;5019684;28;20205;-26
2023/11/04 01:44:07;;;;;;;1.30;1.20;;;;;;;22.21;60.51;95451.72;5017048;28;20206;-26
2023/11/04 01:46:34;;;;;;;1.40;1.30;;;;;;;22.20;60.68;95458.53;5016041;28;20210;-26
2023/11/04 01:49:01;;;;;;;1.10;1.10;;;;;;;22.19;60.39;95456.00;5012874;28;20274;-26
2023/11/04 01:51:27;;;;;;;1.30;1.20;;;;;;;22.20;60.62;95455.97;5012385;28;20203;-27
2023/11/04 01:53:54;;;;;;;1.60;1.50;;;;;;;22.20;60.68;95458.53;5017254;28;20198;-27
2023/11/04 01:56:24;;;;;;;1.37;1.27;;;;;;;22.20;60.39;95458.53;5013828;28;20633;-27
2023/11/04 01:58:52;;;;;;;1.20;1.20;;;;;;;22.20;60.56;95453.44;5021176;28;20296;-26
2023/11/04 02:01:18;;;;;;;1.37;1.27;;;;;;;22.21;60.40;95454.28;4998597;28;20202;-27
2023/11/04 02:03:45;;;;;;;1.40;1.30;;;;;;;22.21;60.51;95456.84;4997123;28;20230;-27
2023/11/04 02:06:12;;;;;;;1.50;1.40;;;;;;;22.21;60.42;95462.81;5028103;28;20234;-26
2023/11/04 02:08:38;;;;;;;1.13;1.13;;;;;;;22.20;60.30;95448.31;5016757;28;20264;-27
2023/11/04 02:11:05;;;;;;;1.40;1.30;;;;;;;22.20;60.25;95455.16;5012104;28;20238;-29
2023/11/04 02:13:31;;;;;;;1.10;1.10;;;;;;;22.19;60.34;95448.31;5015099;28;20240;-27
2023/11/04 02:15:58;;;;;;;1.10;1.10;;;;;;;22.19;60.47;95458.56;5012433;28;20289;-26
2023/11/04 02:18:25;;;;;;;1.40;1.30;;;;;;;22.19;60.01;95451.75;5011920;28;20723;-26
2023/11/04 02:20:52;;;;;;;1.30;1.20;;;;;;;22.19;60.31;95451.75;5019560;28;20199;-28
2023/11/04 02:23:18;;;;;;;1.40;1.30;;;;;;;22.19;60.27;95453.44;5015658;28;20276;-26
2023/11/04 02:25:45;;;;;;;1.30;1.20;;;;;;;22.19;60.32;95440.66;5022092;28;20976;-26
2023/11/04 02:28:12;;;;;;;1.13;1.13;;;;;;;22.19;60.44;95453.44;5022975;28;20218;-29
2023/11/04 02:30:39;;;;;;;1.37;1.27;;;;;;;22.19;60.47;95456.84;5013732;28;20253;-26
2023/11/04 02:33:06;;;;;;;1.17;1.17;;;;;;;22.19;60.43;95453.44;5022036;28;20233;-28
2023/11/04 02:35:33;;;;;;;1.30;1.20;;;;;;;22.20;60.39;95457.72;5021091;28;20736;-26
2023/11/04 02:37:59;;;;;;;1.50;1.40;;;;;;;22.20;60.40;95450.88;5026958;28;20660;-26
2023/11/04 02:40:26;;;;;;;1.17;1.10;;;;;;;22.19;60.47;95459.41;5025731;28;20205;-29
2023/11/04 02:42:52;;;;;;;1.20;1.10;;;;;;;22.20;60.33;95465.38;5003386;28;20202;-28
2023/11/04 02:45:19;;;;;;;1.27;1.17;;;;;;;22.20;60.42;95462.84;5019555;28;20562;-26
2023/11/04 02:47:46;;;;;;;1.10;1.10;;;;;;;22.20;60.40;95465.38;5015971;28;20229;-27
2023/11/04 02:50:13;;;;;;;2.70;1.30;;;;;;;22.19;60.29;95461.97;5020822;28;20665;-27
2023/11/04 02:52:40;;;;;;;1.70;1.20;;;;;;;22.19;60.43;95466.22;5015393;28;20202;-26
2023/11/04 02:55:07;;;;;;;1.30;1.20;;;;;;;22.19;60.24;95463.66;5021177;28;20288;-28
2023/11/04 02:57:34;;;;;;;1.20;1.10;;;;;;;22.19;60.19;95458.56;5019958;28;20208;-26
2023/11/04 03:00:00;;;;;;;1.40;1.30;;;;;;;22.17;60.25;95453.44;5024377;28;20229;-26
2023/11/04 03:02:27;;;;;;;1.20;1.20;;;;;;;22.18;60.10;95450.06;5019672;28;20253;-27
2023/11/04 03:04:54;;;;;;;1.47;1.37;;;;;;;22.18;60.20;95449.19;5017300;28;20256;-26
2023/11/04 03:07:20;;;;;;;1.27;1.17;;;;;;;22.17;60.32;95455.19;5019579;28;20226;-26
2023/11/04 03:09:47;;;;;;;1.33;1.30;;;;;;;22.18;60.29;95446.63;5016041;28;20578;-28
2023/11/04 03:12:15;;;;;;;1.20;1.20;;;;;;;22.17;60.42;95443.22;5024286;28;20212;-26
2023/11/04 03:14:45;;;;;;;1.30;1.20;;;;;;;22.17;60.46;95438.09;5016526;28;20234;-28
2023/11/04 03:17:12;;;;;;;1.40;1.30;;;;;;;22.17;60.33;95444.94;5020728;28;20197;-26
2023/11/04 03:19:39;;;;;;;1.47;1.37;;;;;;;22.18;60.24;95449.19;5016103;28;20222;-26
2023/11/04 03:22:05;;;;;;;1.20;1.10;;;;;;;22.18;60.16;95447.50;5018761;28;20285;-29
2023/11/04 03:24:33;;;;;;;1.23;1.13;;;;;;;22.18;60.45;95451.75;5024581;28;20279;-27
2023/11/04 03:27:00;;;;;;;1.50;1.40;;;;;;;22.18;60.40;95465.41;5018626;28;20248;-27
2023/11/04 03:29:26;;;;;;;1.50;1.23;;;;;;;22.18;60.43;95456.88;5014830;28;20226;-27
2023/11/04 03:31:53;;;;;;;1.20;1.10;;;;;;;22.18;60.37;95456.88;5019211;28;20194;-26
2023/11/04 03:34:19;;;;;;;1.40;1.30;;;;;;;22.16;60.34;95456.88;5026378;28;20730;-26
2023/11/04 03:36:46;;;;;;;1.27;1.17;;;;;;;22.17;60.25;95450.88;5015024;28;20619;-29
2023/11/04 03:39:13;;;;;;;1.50;1.40;;;;;;;22.17;60.20;95456.00;5019065;28;20214;-27
2023/11/04 03:41:40;;;;;;;1.50;1.40;;;;;;;22.17;60.27;95455.19;5024038;28;20668;-26
2023/11/04 03:44:06;;;;;;;1.30;1.20;;;;;;;22.17;60.16;95450.06;5017846;28;20271;-28
2023/11/04 03:46:33;;;;;;;1.40;1.27;;;;;;;22.17;60.18;95456.00;5021603;28;20259;-28
2023/11/04 03:49:00;;;;;;;1.30;1.20;;;;;;;22.17;60.30;95452.63;5015629;28;20262;-26
2023/11/04 03:51:27;;;;;;;1.23;1.20;;;;;;;22.17;60.35;95458.56;5023514;28;20205;-27
2023/11/04 03:53:53;;;;;;;1.27;1.20;;;;;;;22.18;60.35;95454.31;5014690;28;20577;-27
2023/11/04 03:56:22;;;;;;;1.33;1.23;;;;;;;22.16;60.27;95450.91;5021300;28;20198;-26
2023/11/04 03:58:49;;;;;;;1.27;1.23;;;;;;;22.17;60.40;95448.31;5014798;28;20795;-26
2023/11/04 04:01:15;;;;;;;1.37;1.27;;;;;;;22.18;60.22;95444.94;5018743;28;20748;-28
2023/11/04 04:03:42;;;;;;;1.30;1.20;;;;;;;22.18;60.13;95446.63;5023104;28;20194;-26
2023/11/04 04:06:09;;;;;;;1.50;1.40;;;;;;;22.19;60.22;95448.31;5015861;28;20202;-30
2023/11/04 04:08:35;;;;;;;1.20;1.20;;;;;;;22.19;60.25;95443.19;5022958;28;20470;-27
2023/11/04 04:11:02;;;;;;;1.30;1.20;;;;;;;22.17;60.28;95435.53;5014601;28;20579;-31
2023/11/04 04:13:29;;;;;;;1.33;1.23;;;;;;;22.16;60.22;95433.84;5013625;28;20202;-26
2023/11/04 04:15:56;;;;;;;1.40;1.30;;;;;;;22.18;60.12;95431.28;5021783;28;20198;-28
2023/11/04 04:18:23;;;;;;;1.30;1.20;;;;;;;22.18;60.08;95423.59;5019830;28;20296;-26
2023/11/04 04:20:49;;;;;;;1.10;1.10;;;;;;;22.17;60.01;95420.19;5014996;28;20198;-27
2023/11/04 04:23:16;;;;;;;1.30;1.20;;;;;;;22.18;60.03;95410.81;5016649;28;20256;-28
2023/11/04 04:25:42;;;;;;;1.40;1.30;;;;;;;22.17;60.18;95414.25;5022113;28;20423;-26
2023/11/04 04:28:09;;;;;;;1.40;1.30;;;;;;;22.18;60.06;95411.69;5013982;28;20229;-26
2023/11/04 04:30:36;;;;;;;1.30;1.20;;;;;;;22.17;60.05;95407.41;5015994;28;20233;-26
2023/11/04 04:33:02;;;;;;;1.10;1.10;;;;;;;22.18;60.12;95405.69;5013687;28;20209;-27
2023/11/04 04:35:29;;;;;;;1.30;1.20;;;;;;;22.17;60.08;95404.00;5021100;28;20681;-27
2023/11/04 04:37:56;;;;;;;1.50;1.40;;;;;;;22.18;60.20;95400.59;5019204;28;20226;-26
2023/11/04 04:40:23;;;;;;;1.43;1.27;;;;;;;22.17;60.01;95402.28;5019453;28;20273;-28
2023/11/04 04:42:54;;;;;;;1.37;1.27;;;;;;;22.18;60.25;95405.69;5013471;28;20205;-27
2023/11/04 04:45:20;;;;;;;1.43;1.33;;;;;;;22.17;60.02;95409.13;5018028;28;20217;-26
2023/11/04 04:47:47;;;;;;;1.17;1.17;;;;;;;22.18;60.02;95408.25;5019133;28;20734;-30
2023/11/04 04:50:14;;;;;;;1.40;1.30;;;;;;;22.18;60.19;95404.00;5017252;28;20233;-26
2023/11/04 04:52:41;;;;;;;1.37;1.27;;;;;;;22.18;60.03;95401.44;5021183;28;20202;-26
2023/11/04 04:55:07;;;;;;;1.20;1.20;;;;;;;22.18;60.06;95395.47;5016942;28;20206;-28
2023/11/04 04:57:35;;;;;;;1.07;1.07;;;;;;;22.17;60.21;95393.78;5019076;28;20230;-27
2023/11/04 05:00:05;;;;;;;1.10;1.10;;;;;;;22.17;60.19;95391.22;5023821;28;20222;-26
2023/11/04 05:02:33;;;;;;;1.17;1.17;;;;;;;22.17;60.04;95394.59;5018237;28;20264;-27
2023/11/04 05:05:00;;;;;;;1.20;1.20;;;;;;;22.15;59.80;95393.78;5022884;28;20608;-29
2023/11/04 05:07:26;;;;;;;1.10;1.10;;;;;;;22.17;60.12;95391.22;5017778;28;20205;-26
2023/11/04 05:09:53;;;;;;;1.50;1.40;;;;;;;22.17;59.85;95381.00;5021287;28;20268;-26
2023/11/04 05:12:20;;;;;;;1.20;1.20;;;;;;;22.17;59.93;95381.81;5016546;28;20741;-27
2023/11/04 05:14:47;;;;;;;1.30;1.20;;;;;;;22.17;60.00;95383.53;5020320;28;20248;-26
2023/11/04 05:17:13;;;;;;;1.20;1.10;;;;;;;22.18;60.07;95386.09;5015377;28;20248;-26
2023/11/04 05:19:40;;;;;;;1.23;1.13;;;;;;;22.18;60.10;95385.22;5012722;28;20273;-29
2023/11/04 05:22:07;;;;;;;1.30;1.20;;;;;;;22.17;60.10;95381.81;5023125;28;20234;-28
2023/11/04 05:24:37;;;;;;;1.90;1.10;;;;;;;22.18;60.03;95380.13;5017569;28;20249;-26
2023/11/04 05:27:03;;;;;;;1.00;1.00;;;;;;;22.19;60.05;95389.47;5012586;28;20209;-27
2023/11/04 05:29:31;;;;;;;1.13;1.13;;;;;;;22.18;60.08;95369.88;5012619;28;20221;-27
2023/11/04 05:31:57;;;;;;;1.27;1.20;;;;;;;22.18;59.96;95380.97;5019861;28;20245;-26
2023/11/04 05:34:24;;;;;;;1.33;1.23;;;;;;;22.19;59.89;95375.00;5016104;28;20248;-26
2023/11/04 05:36:51;;;;;;;1.03;1.03;;;;;;;22.19;60.05;95377.53;5017906;28;20257;-26
2023/11/04 05:39:17;;;;;;;1.30;1.20;;;;;;;22.19;60.00;95377.53;5014989;28;20220;-26
2023/11/04 05:41:44;;;;;;;1.10;1.10;;;;;;;22.19;60.06;95377.53;5016537;28;20654;-26
2023/11/04 05:44:11;;;;;;;1.10;1.10;;;;;;;22.19;59.88;95374.13;5015728;28;20202;-26
2023/11/04 05:46:37;;;;;;;1.43;1.33;;;;;;;22.18;59.77;95370.75;5011465;28;20297;-28
2023/11/04 05:49:04;;;;;;;1.13;1.10;;;;;;;22.18;59.84;95367.31;5014730;28;20309;-29
2023/11/04 05:51:31;;;;;;;1.47;1.20;;;;;;;22.17;59.78;95363.91;5023634;28;20712;-26
2023/11/04 05:53:57;;;;;;;1.20;1.10;;;;;;;22.17;59.88;95363.91;5015435;28;20198;-26
2023/11/04 05:56:24;;;;;;;1.00;1.00;;;;;;;22.18;59.84;95359.66;5016486;28;20198;-28
2023/11/04 05:58:51;;;;;;;1.30;1.20;;;;;;;22.18;59.84;95354.53;5014844;28;20301;-26
2023/11/04 06:01:24;;;;;;;1.20;1.20;;;;;;;22.17;59.82;95358.78;5022672;28;20251;-26
2023/11/04 06:03:51;;;;;;;1.00;1.00;;;;;;;22.18;59.83;95354.53;5018967;28;20265;-27
2023/11/04 06:06:21;;;;;;;1.20;1.10;;;;;;;22.18;59.82;95351.97;5020828;28;20228;-26
2023/11/04 06:08:48;;;;;;;1.00;1.00;;;;;;;22.19;59.77;95356.22;5026267;28;20221;-26
2023/11/04 06:11:14;;;;;;;2.20;1.30;;;;;;;22.18;59.87;95344.31;5016821;28;20272;-27
2023/11/04 06:13:44;;;;;;;1.17;1.10;;;;;;;22.18;59.82;95346.84;5026850;28;20553;-27
2023/11/04 06:16:11;;;;;;;1.00;1.00;;;;;;;22.18;59.77;95342.59;5010494;28;20611;-29
2023/11/04 06:18:37;;;;;;;1.03;1.03;;;;;;;22.19;59.81;95333.19;5024879;28;20296;-27
2023/11/04 06:21:04;;;;;;;1.07;1.07;;;;;;;22.18;59.93;95329.81;5017154;28;20209;-26
2023/11/04 06:23:31;;;;;;;1.37;1.27;;;;;;;22.19;59.68;95325.53;5022215;28;20244;-27
2023/11/04 06:25:58;;;;;;;1.23;1.10;;;;;;;22.17;59.73;95325.53;5023447;28;20198;-26
2023/11/04 06:28:24;;;;;;;1.10;1.10;;;;;;;22.17;59.70;95322.97;5018238;28;20210;-27
2023/11/04 06:30:51;;;;;;;1.20;1.10;;;;;;;22.17;59.55;95324.72;5025342;28;20236;-26
2023/11/04 06:33:18;;;;;;;1.10;1.10;;;;;;;22.16;59.68;95325.53;5017212;28;20225;-27
2023/11/04 06:35:44;;;;;;;1.30;1.20;;;;;;;22.17;59.71;95324.72;5021482;28;20194;-27
2023/11/04 06:38:11;;;;;;;1.00;1.00;;;;;;;22.15;59.62;95322.16;5008530;28;20205;-26
2023/11/04 06:40:40;;;;;;;1.00;1.00;;;;;;;22.16;59.85;95316.19;5024022;28;20669;-27
2023/11/04 06:43:07;;;;;;;0.93;0.93;;;;;;;22.16;59.63;95318.72;5016103;28;20768;-26
2023/11/04 06:45:34;;;;;;;1.10;1.10;;;;;;;22.16;59.70;95312.75;5021385;28;20208;-30
2023/11/04 06:48:01;;;;;;;1.00;1.00;;;;;;;22.16;59.65;95318.72;5019637;28;20209;-26
2023/11/04 06:50:28;;;;;;;1.20;1.10;;;;;;;22.16;59.69;95317.88;5015528;28;20778;-29
2023/11/04 06:52:55;;;;;;;1.00;0.90;;;;;;;22.16;59.81;95315.31;5015243;28;20202;-27
2023/11/04 06:55:22;;;;;;;1.03;1.03;;;;;;;22.16;59.67;95316.19;5015825;28;20198;-29
2023/11/04 06:57:48;;;;;;;1.27;1.17;;;;;;;22.16;59.91;95315.31;5015444;28;20619;-31
2023/11/04 07:00:17;;;;;;;1.10;1.10;;;;;;;22.16;59.81;95312.75;5015933;28;20214;-27
2023/11/04 07:02:44;;;;;;;1.00;1.00;;;;;;;22.16;59.84;95312.75;5016519;28;20195;-26
2023/11/04 07:05:11;;;;;;;1.00;1.00;;;;;;;22.15;59.88;95306.81;5015657;28;20740;-28
2023/11/04 07:07:37;;;;;;;1.00;1.00;;;;;;;22.15;59.52;95304.25;5014548;28;20194;-26
2023/11/04 07:10:06;;;;;;;1.10;1.10;;;;;;;22.13;59.57;95305.09;5014928;28;20230;-26
2023/11/04 07:12:34;;;;;;;1.10;1.10;;;;;;;22.15;59.70;95306.81;5015765;28;20676;-27
2023/11/04 07:15:04;;;;;;;0.90;0.90;;;;;;;22.14;59.64;95297.41;5015138;28;20218;-31
2023/11/04 07:17:31;;;;;;;0.90;0.90;;;;;;;22.15;59.59;95298.28;5013236;28;20226;-30
2023/11/04 07:19:58;;;;;;;1.00;1.00;;;;;;;22.15;59.70;95304.25;5022996;28;20222;-27
2023/11/04 07:22:24;;;;;;;1.20;1.10;;;;;;;22.16;59.62;95305.09;5018349;28;20204;-26
2023/11/04 07:24:51;;;;;;;1.10;1.10;;;;;;;22.16;59.32;95289.72;5014105;28;20660;-38
2023/11/04 07:27:17;;;;;;;1.00;1.00;;;;;;;22.17;59.70;95292.28;5009205;28;20226;-30
2023/11/04 07:29:44;;;;;;;1.30;1.20;;;;;;;22.17;59.55;95296.56;5013838;28;20242;-26
2023/11/04 07:32:11;;;;;;;0.93;0.93;;;;;;;22.17;59.67;95294.00;5024246;28;20209;-26
2023/11/04 07:34:38;;;;;;;1.33;1.23;;;;;;;22.17;59.58;95281.22;5019263;28;20245;-28
2023/11/04 07:37:04;;;;;;;1.00;1.00;;;;;;;22.16;59.44;95285.47;5022427;28;20667;-27
2023/11/04 07:39:31;;;;;;;1.07;1.00;;;;;;;22.18;59.59;95286.31;5014419;28;20317;-26
2023/11/04 07:41:58;;;;;;;1.00;1.00;;;;;;;22.16;59.68;95288.03;5016521;28;20245;-29
2023/11/04 07:44:24;;;;;;;1.00;1.00;;;;;;;22.17;59.45;95276.94;5020611;28;20233;-26
2023/11/04 07:46:51;;;;;;;1.10;1.10;;;;;;;22.16;59.58;95269.28;5018794;28;20214;-26
2023/11/04 07:49:18;;;;;;;1.13;1.10;;;;;;;22.16;59.48;95262.44;5016287;28;20309;-26
2023/11/04 07:51:44;;;;;;;1.30;1.20;;;;;;;22.16;59.41;95265.00;5019508;28;20688;-27
2023/11/04 07:54:11;;;;;;;1.43;1.33;;;;;;;22.16;59.37;95259.03;5017833;28;20202;-26
2023/11/04 07:56:37;;;;;;;1.10;1.10;;;;;;;22.15;59.53;95259.91;5013685;28;20624;-28
2023/11/04 07:59:04;;;;;;;1.07;1.07;;;;;;;22.15;59.60;95253.09;5014748;28;20268;-26
2023/11/04 08:01:31;;;;;;;1.10;1.10;;;;;;;22.17;59.41;95250.53;5013702;28;20256;-28
2023/11/04 08:03:58;;;;;;;1.00;1.00;;;;;;;22.15;59.33;95247.97;5014765;28;20584;-26
2023/11/04 08:06:25;;;;;;;1.00;1.00;;;;;;;22.16;59.66;95254.78;5015578;28;20288;-30
2023/11/04 08:08:51;;;;;;;0.90;0.90;;;;;;;22.16;59.49;95248.81;5013012;28;20226;-27
2023/11/04 08:11:18;;;;;;;1.10;1.10;;;;;;;22.17;59.53;95250.53;5014299;28;20202;-32
2023/11/04 08:13:45;;;;;;;1.00;1.00;;;;;;;22.17;59.59;95243.69;5014431;28;20551;-26
2023/11/04 08:16:11;;;;;;;1.00;1.00;;;;;;;22.18;59.36;95241.97;5014390;28;20206;-27
2023/11/04 08:18:38;;;;;;;1.23;1.20;;;;;;;22.19;59.43;95230.88;5015406;28;20226;-28
2023/11/04 08:21:05;;;;;;;1.00;1.00;;;;;;;22.19;59.47;95223.19;5014400;28;20297;-26
2023/11/04 08:23:32;;;;;;;1.10;1.00;;;;;;;22.18;59.46;95224.94;5014911;28;20206;-28
2023/11/04 08:26:00;;;;;;;0.90;0.90;;;;;;;22.19;59.50;95218.06;5013719;28;20257;-27
2023/11/04 08:28:28;;;;;;;1.00;1.00;;;;;;;22.18;59.41;95211.28;5013372;28;20203;-26
2023/11/04 08:30:55;;;;;;;1.00;1.00;;;;;;;22.17;59.58;95212.97;5014227;28;20198;-26
2023/11/04 08:33:21;;;;;;;1.10;1.10;;;;;;;22.16;59.43;95202.75;5014047;28;20673;-26
2023/11/04 08:35:48;;;;;;;1.20;1.20;;;;;;;22.15;59.53;95196.81;5012524;28;20669;-28
2023/11/04 08:38:16;;;;;;;1.30;1.20;;;;;;;22.17;59.38;95200.19;5012388;28;20673;-26
2023/11/04 08:40:43;;;;;;;1.13;1.13;;;;;;;22.16;59.49;95190.81;5014389;28;20665;-26
2023/11/04 08:43:11;;;;;;;1.20;1.17;;;;;;;22.16;59.49;95192.53;5020893;28;20205;-26
2023/11/04 08:45:37;;;;;;;0.90;0.90;;;;;;;22.17;59.52;95189.94;5013088;28;20214;-26
2023/11/04 08:48:04;;;;;;;1.20;1.10;;;;;;;22.17;59.60;95176.34;5015978;28;20201;-26
2023/11/04 08:50:31;;;;;;;1.00;1.00;;;;;;;22.17;59.60;95184.84;5014967;28;20253;-29
2023/11/04 08:52:58;;;;;;;1.00;1.00;;;;;;;22.17;59.55;95189.13;5019627;28;20204;-26
2023/11/04 08:55:25;;;;;;;1.10;1.10;;;;;;;22.17;59.53;95179.72;5020257;28;20203;-31
2023/11/04 08:57:51;;;;;;;0.90;0.90;;;;;;;22.16;58.82;95175.47;5017390;28;20249;-27
2023/11/04 09:00:18;;;;;;;1.37;1.10;;;;;;;22.15;55.41;95183.16;5016046;28;20225;-35
2023/11/04 09:02:45;;;;;;;1.30;1.20;;;;;;;22.03;52.99;95156.03;5021148;28;20571;-26
2023/11/04 09:05:12;;;;;;;1.33;1.10;;;;;;;22.10;50.74;95167.88;5017274;28;20580;-26
2023/11/04 09:07:45;;;;;;;1.27;1.17;;;;;;;22.10;49.78;95175.53;5022916;28;20208;-26
2023/11/04 09:10:12;;;;;;;1.47;1.37;;;;;;;22.08;48.73;95174.69;5014376;28;20685;-27
2023/11/04 09:12:38;;;;;;;1.30;1.20;;;;;;;21.98;47.93;95149.22;5020299;28;20572;-26
2023/11/04 09:15:05;;;;;;;1.30;1.20;;;;;;;22.06;47.77;95165.34;5016308;28;20202;-26
2023/11/04 09:17:32;;;;;;;2.50;1.40;;;;;;;22.04;48.04;95155.16;5014246;28;20202;-26
2023/11/04 09:19:59;;;;;;;1.20;1.10;;;;;;;22.04;48.04;95147.47;5016565;28;20297;-26
2023/11/04 09:22:26;;;;;;;1.20;1.10;;;;;;;22.03;47.97;95150.91;5014890;28;20199;-26
2023/11/04 09:24:52;;;;;;;1.23;1.13;;;;;;;22.03;47.64;95157.72;5022431;28;20205;-27
2023/11/04 09:27:19;;;;;;;1.57;1.17;;;;;;;22.01;47.28;95149.19;5014643;28;20653;-26
2023/11/04 09:29:46;;;;;;;1.40;1.10;;;;;;;22.01;47.05;95138.97;5015977;28;20547;-26
2023/11/04 09:32:13;;;;;;;1.03;1.03;;;;;;;22.00;47.19;95144.97;5012204;28;20199;-26
2023/11/04 09:34:39;;;;;;;1.10;1.07;;;;;;;21.99;46.67;95138.16;5014975;28;20209;-26
2023/11/04 09:37:06;;;;;;;1.23;1.13;;;;;;;21.99;46.33;95138.16;5011571;28;20257;-28
2023/11/04 09:39:33;;;;;;;1.40;1.30;;;;;;;21.98;46.42;95139.00;5011892;28;20218;-27
2023/11/04 09:41:59;;;;;;;1.20;1.10;;;;;;;21.99;46.85;95135.59;5011763;28;20206;-27
2023/11/04 09:44:26;;;;;;;1.30;1.20;;;;;;;21.99;47.97;95135.59;5012227;28;20643;-26
2023/11/04 09:46:53;;;;;;;1.20;1.10;;;;;;;21.95;48.59;95124.53;5020735;28;20564;-29
2023/11/04 09:49:19;;;;;;;1.17;1.10;;;;;;;21.97;48.29;95125.38;5013533;28;20305;-26
2023/11/04 09:51:46;;;;;;;1.20;1.10;;;;;;;21.96;45.60;95117.72;5013426;28;20198;-26
2023/11/04 09:54:13;;;;;;;1.30;1.20;;;;;;;21.94;44.35;95112.63;5011481;28;20206;-26
2023/11/04 09:56:39;;;;;;;1.77;1.13;;;;;;;21.91;43.52;95102.44;5010826;28;20198;-30
2023/11/04 09:59:07;;;;;;;1.43;1.20;;;;;;;21.91;43.26;95106.69;5020681;28;20642;-26
2023/11/04 10:01:34;;;;;;;3.93;1.27;;;;;;;21.90;45.08;95098.16;5011862;28;20260;-26
2023/11/04 10:04:01;;;;;;;1.40;1.30;;;;;;;21.91;46.37;95093.91;5020247;28;20571;-26
2023/11/04 10:06:29;;;;;;;1.20;1.10;;;;;;;21.90;47.00;95087.13;5011856;28;20249;-26
2023/11/04 10:08:56;;;;;;;2.10;1.00;;;;;;;21.91;47.70;95076.88;5016688;28;20261;-32
2023/11/04 10:11:22;;;;;;;1.23;1.10;;;;;;;21.92;48.27;95075.13;5013046;28;20253;-27
2023/11/04 10:13:49;;;;;;;1.27;1.10;;;;;;;21.92;48.65;95073.44;5017801;28;20256;-26
2023/11/04 10:16:18;;;;;;;1.27;1.10;;;;;;;21.93;49.16;95077.69;5016960;28;20656;-28
2023/11/04 10:18:45;;;;;;;2.33;1.50;;;;;;;21.94;49.47;95070.88;5011218;28;20570;-27
2023/11/04 10:21:12;;;;;;;3.90;1.20;;;;;;;21.95;49.98;95068.28;5017137;28;20202;-26
2023/11/04 10:23:38;;;;;;;1.00;1.00;;;;;;;21.94;50.48;95058.09;5009150;28;20198;-28
2023/11/04 10:26:05;;;;;;;2.10;1.20;;;;;;;21.95;50.57;95055.50;5012723;28;20653;-27
2023/11/04 10:28:31;;;;;;;1.33;1.00;;;;;;;21.96;50.80;95048.69;5013429;28;20202;-26
2023/11/04 10:31:04;;;;;;;2.13;1.00;;;;;;;21.96;50.92;95053.81;5012941;28;20720;-29
2023/11/04 10:33:35;;;;;;;2.33;1.20;;;;;;;21.95;51.39;95032.50;5017734;28;20207;-27
2023/11/04 10:36:03;;;;;;;4.03;1.40;;;;;;;21.98;51.60;95029.03;5012259;28;20206;-26
2023/11/04 10:38:32;;;;;;;1.20;1.10;;;;;;;21.93;51.68;95015.50;5017245;28;20722;-26
2023/11/04 10:40:59;;;;;;;3.27;1.30;;;;;;;21.99;51.95;95018.78;5012081;28;20650;-26
2023/11/04 10:43:25;;;;;;;2.40;1.10;;;;;;;22.00;52.09;95009.44;5015577;28;20236;-28
2023/11/04 10:45:55;;;;;;;1.30;1.20;;;;;;;22.01;52.33;95013.66;4999796;28;20654;-26
2023/11/04 10:48:40;;;;;;;1.37;1.10;;;;;;;22.01;52.43;95011.97;5017751;28;20198;-27
2023/11/04 10:51:32;;;;;;;1.20;1.10;;;;;;;22.03;52.78;95006.84;5018387;28;20300;-26
2023/11/04 10:54:16;;;;;;;1.10;1.10;;;;;;;22.02;53.00;95003.41;5018621;28;20700;-35
2023/11/04 10:56:44;;;;;;;1.00;1.00;;;;;;;22.00;52.95;94997.50;5014563;28;20234;-26
2023/11/04 10:59:14;;;;;;;2.00;1.00;;;;;;;22.04;53.08;94990.59;5020152;28;20225;-27
2023/11/04 11:01:41;;;;;;;1.30;1.20;;;;;;;22.04;53.35;94980.38;5015904;28;20277;-30
2023/11/04 11:04:08;;;;;;;1.17;1.17;;;;;;;22.03;53.34;94982.13;5019689;28;20201;-26
2023/11/04 11:06:35;;;;;;;1.20;1.10;;;;;;;22.04;53.54;94978.69;5004257;28;20198;-26
2023/11/04 11:09:04;;;;;;;1.13;1.03;;;;;;;22.05;53.64;94982.09;5021656;28;20225;-26
2023/11/04 11:11:34;;;;;;;1.23;1.00;;;;;;;22.03;53.43;94979.56;5015999;28;20251;-26
2023/11/04 11:14:01;;;;;;;1.20;1.10;;;;;;;22.03;53.57;94969.31;5017927;28;20292;-26
2023/11/04 11:16:30;;;;;;;0.90;0.90;;;;;;;22.03;53.79;94959.09;5005418;28;20205;-26
2023/11/04 11:19:07;;;;;;;1.00;1.00;;;;;;;22.03;53.92;94955.69;5016272;28;20480;-31
2023/11/04 11:21:49;;;;;;;1.83;1.03;;;;;;;22.02;53.91;94942.03;5016073;28;20198;-27
2023/11/04 11:24:17;;;;;;;1.20;1.10;;;;;;;22.04;54.17;94932.66;5018548;28;20194;-39
2023/11/04 11:26:50;;;;;;;1.07;1.00;;;;;;;22.05;54.29;94934.31;5008720;28;20556;-27
2023/11/04 11:29:26;;;;;;;2.93;1.00;;;;;;;22.05;54.32;94928.38;5017136;28;20225;-27
2023/11/04 11:32:06;;;;;;;1.00;0.93;;;;;;;22.06;54.71;94925.81;5014114;28;20202;-26
2023/11/04 11:34:32;;;;;;;1.20;1.10;;;;;;;;;;5016460;28;20204;-26